Falmouth, MA

2:44 AM EDT on July 30, 2016 (GMT -0400)
Smith Building, WHOI Dock | | Change Station

Elev 46 ft 41.54 °N, 70.65 °W | Updated 4 minutes ago

Overcast
Overcast
70.8 °F
Feels Like 70.8 °F
N
6.0
Wind Variable Wind from NNW
Gusts 9.0 mph

Today
High -- | Low -- °F
--% Chance of Precip.
Yesterday
High -- | Low -- °F
Precip. -- in
Pressure 29.92 in
Visibility 1.8 miles
Clouds Overcast 300 ft
Dew Point 68 °F
Humidity 90%
Rainfall 0.00 in
Snow Depth Not available.
5:35 AM 8:01 PM
Waning Crescent, 15% visible
SPECI KMVY 300641Z AUTO 00000KT 1 3/4SM R24/5000VP6000FT BR OVC003 19/19 A2992 RMK AO2 VIS 3/4V4 T01940189 PNO
Pressure 29.92 in
Visibility 1.8 miles
Clouds Overcast 300 ft
Dew Point 68 °F
Humidity 90%
Rainfall 0.00 in
Snow Depth Not available.
5:35 AM 8:01 PM
Waning Crescent, 15% visible
SPECI KMVY 300641Z AUTO 00000KT 1 3/4SM R24/5000VP6000FT BR OVC003 19/19 A2992 RMK AO2 VIS 3/4V4 T01940189 PNO

10-Day Weather Forecast

Almanac

Astronomy

Jul. 30, 2016 Rise Set
Actual Time
Civil Twilight
Nautical Twilight
Astronomical Twilight
Moon
Length of Visible Light
Length of Day
Tomorrow will be .
, % of the Moon is Illuminated

Today's Extremes

State Highs State Lows

Community

WunderPhotos

Upload Photos

1,928,508 photos uploaded!

WunderBlog® & News

Nearby

Air Quality

  Air Quality AQ Index Pollutant
Not available.

Snow Depth

Station Depth Elevation

Earthquake Activity

City Distance Mag. Time & Date
Minimum magnitude displayed is 2.5.

Coastal Water Temperatures

Place Temperature

Stations

Nearby Weather Stations

Station Location Temp. Windchill Dew Point Humidity Wind Precip. Elev Updated Type
                   

Watches & Warnings

There are currently no watches in effect.